Time;durP1;ratioP1;P1;durP2;ratioP2;P2;SDS_P1;SDS_P2;PMS_P1;PMS_P2;Temp;Humidity;BMP_temperature;BMP_pressure;BME280_temperature;BME280_humidity;BME280_pressure;Samples;Min_cycle;Max_cycle;Signal;HPM_P1;HPM_P2
2023/05/22 18:09:15;;;;;;;3.00;1.65;;;;;;;20.94;62.47;100297.38;4779604;29;20093;-78
2023/05/22 18:11:40;;;;;;;2.38;1.15;;;;;;;20.54;66.62;100248.44;4785367;29;20502;-79
2023/05/22 18:14:06;;;;;;;2.63;1.67;;;;;;;20.67;65.31;100286.97;4781561;29;20046;-79
2023/05/22 18:16:31;;;;;;;2.92;1.73;;;;;;;20.69;64.48;100297.59;4766452;29;20123;-80
2023/05/22 18:18:57;;;;;;;3.03;1.50;;;;;;;20.53;65.82;100287.53;4797861;29;20034;-78
2023/05/22 18:21:22;;;;;;;3.42;1.35;;;;;;;20.58;66.34;100296.25;4794155;29;20384;-80
2023/05/22 18:23:47;;;;;;;3.33;1.83;;;;;;;20.60;66.13;100307.72;4798174;29;20031;-75
2023/05/22 18:26:13;;;;;;;3.20;2.05;;;;;;;20.47;66.03;100305.63;4787150;29;20506;-76
2023/05/22 18:28:40;;;;;;;2.88;1.60;;;;;;;20.46;66.67;100296.72;4795872;29;20049;-77
2023/05/22 18:31:06;;;;;;;4.28;2.15;;;;;;;20.45;65.36;100317.19;4790836;29;20115;-77
2023/05/22 18:33:33;;;;;;;5.38;2.83;;;;;;;20.38;64.68;100301.53;4800099;29;20086;-77
2023/05/22 18:35:59;;;;;;;3.20;1.77;;;;;;;20.40;66.12;100319.19;4799721;29;20568;-77
2023/05/22 18:38:26;;;;;;;2.58;1.75;;;;;;;20.22;68.89;100331.47;4782396;29;20030;-78
2023/05/22 18:40:52;;;;;;;3.78;2.15;;;;;;;19.96;69.81;100299.72;4800379;29;20033;-77
2023/05/22 18:43:18;;;;;;;5.15;2.17;;;;;;;20.11;71.11;100339.06;4794559;29;20039;-77
2023/05/22 18:45:43;;;;;;;4.45;2.25;;;;;;;20.03;74.10;100339.34;4795827;29;20110;-77
2023/05/22 18:48:08;;;;;;;2.72;1.05;;;;;;;19.97;75.67;100349.38;4794573;29;20518;-78
2023/05/22 18:50:34;;;;;;;4.88;1.92;;;;;;;19.91;78.21;100341.66;4797942;29;20385;-78
2023/05/22 18:52:59;;;;;;;3.50;1.95;;;;;;;19.73;80.30;100340.59;4796079;29;20030;-81
2023/05/22 18:55:25;;;;;;;5.75;2.33;;;;;;;19.61;82.63;100333.91;4795619;29;20074;-80
2023/05/22 18:57:51;;;;;;;2.40;1.35;;;;;;;19.58;85.36;100347.34;4797877;29;20043;-84
2023/05/22 19:00:16;;;;;;;3.05;2.00;;;;;;;19.60;87.33;100353.47;4798485;29;20471;-81
2023/05/22 19:02:42;;;;;;;6.28;2.88;;;;;;;19.65;89.34;100361.28;4797238;29;20058;-79
2023/05/22 19:05:08;;;;;;;4.65;2.60;;;;;;;19.52;90.19;100355.56;4802549;29;20038;-80
2023/05/22 19:07:33;;;;;;;4.60;2.47;;;;;;;19.55;91.35;100355.41;4803111;29;20035;-80
2023/05/22 19:09:58;;;;;;;6.25;2.58;;;;;;;19.47;95.39;100358.38;4777659;29;20067;-80
2023/05/22 19:12:27;;;;;;;3.92;2.05;;;;;;;19.24;95.68;100318.47;4794529;29;20820;-76
2023/05/22 19:14:52;;;;;;;6.07;2.30;;;;;;;19.18;100.00;100354.16;4790269;29;20058;-75
2023/05/22 19:17:18;;;;;;;3.25;2.13;;;;;;;19.26;99.71;100367.16;4794544;29;20039;-74
2023/05/22 19:19:43;;;;;;;4.25;2.20;;;;;;;19.05;100.00;100320.94;4793702;29;20073;-74
2023/05/22 19:22:08;;;;;;;4.18;2.22;;;;;;;19.02;100.00;100364.47;4794749;29;20030;-74
2023/05/22 19:24:35;;;;;;;4.78;2.50;;;;;;;18.84;100.00;100365.97;4798472;29;20045;-74
2023/05/22 19:27:00;;;;;;;3.20;2.35;;;;;;;18.83;100.00;100366.91;4798819;29;20038;-74
2023/05/22 19:29:26;;;;;;;9.07;2.80;;;;;;;18.78;100.00;100363.56;4800022;29;20810;-75
2023/05/22 19:31:51;;;;;;;3.88;2.67;;;;;;;19.02;100.00;100361.81;4796938;29;20035;-75
2023/05/22 19:34:17;;;;;;;3.33;1.90;;;;;;;19.12;100.00;100357.03;4802348;29;20398;-84
2023/05/22 19:36:42;;;;;;;3.47;2.40;;;;;;;19.11;100.00;100356.16;4804838;29;20042;-84
2023/05/22 19:39:08;;;;;;;5.28;3.30;;;;;;;19.12;100.00;100355.22;4801650;29;20491;-84
2023/05/22 19:41:33;;;;;;;4.35;2.25;;;;;;;18.83;100.00;100358.94;4803884;29;20095;-83
2023/05/22 19:43:58;;;;;;;4.68;2.50;;;;;;;18.61;100.00;100366.72;4808364;29;20129;-83
2023/05/22 19:46:24;;;;;;;6.20;3.10;;;;;;;18.60;100.00;100374.78;4806161;29;20038;-83
2023/05/22 19:48:50;;;;;;;7.72;3.78;;;;;;;18.86;100.00;100371.25;4808917;29;20042;-84
2023/05/22 19:51:15;;;;;;;8.30;3.90;;;;;;;18.34;100.00;100329.56;4794216;29;20047;-84
2023/05/22 19:53:41;;;;;;;6.38;3.33;;;;;;;18.34;100.00;100377.38;4801588;29;20608;-83
2023/05/22 19:56:06;;;;;;;4.75;2.53;;;;;;;18.02;100.00;100372.22;4796457;29;20029;-84
2023/05/22 19:58:32;;;;;;;5.20;2.30;;;;;;;18.09;100.00;100379.06;4806184;29;20026;-83
2023/05/22 20:00:57;;;;;;;19.60;3.13;;;;;;;18.00;100.00;100366.09;4806751;29;20030;-83
2023/05/22 20:03:23;;;;;;;4.18;2.28;;;;;;;18.05;100.00;100354.44;4797876;29;20031;-84
2023/05/22 20:05:54;;;;;;;4.35;3.13;;;;;;;18.34;100.00;100377.38;4802258;29;20104;-82
2023/05/22 20:08:21;;;;;;;4.75;2.50;;;;;;;18.42;100.00;100390.41;4803061;29;20031;-74
2023/05/22 20:10:46;;;;;;;5.47;3.50;;;;;;;17.97;100.00;100375.03;4800184;29;20129;-74
2023/05/22 20:13:12;;;;;;;6.82;2.60;;;;;;;17.76;100.00;100387.13;4801414;29;20114;-74
2023/05/22 20:15:39;;;;;;;5.70;2.97;;;;;;;17.71;100.00;100376.66;4800266;29;20058;-74
2023/05/22 20:18:05;;;;;;;7.65;3.53;;;;;;;17.62;100.00;100373.41;4782412;29;20038;-74
2023/05/22 20:20:31;;;;;;;8.98;3.50;;;;;;;17.70;100.00;100372.28;4796350;29;20037;-74
2023/05/22 20:22:57;;;;;;;4.80;2.55;;;;;;;17.52;100.00;100378.97;4800492;29;20028;-75
2023/05/22 20:25:23;;;;;;;5.45;3.25;;;;;;;17.31;100.00;100329.22;4949462;24;20206;-83
2023/05/22 20:27:49;;;;;;;4.18;2.92;;;;;;;17.65;100.00;100349.44;4797403;29;20030;-81
2023/05/22 20:32:48;;;;;;;4.20;2.55;;;;;;;17.45;100.00;100339.41;4807396;29;20055;-84
2023/05/22 20:35:17;;;;;;;5.00;3.08;;;;;;;17.17;100.00;100339.34;4821235;29;20064;-82
2023/05/22 20:37:44;;;;;;;5.55;3.60;;;;;;;17.24;100.00;100381.56;4820861;29;20038;-82
2023/05/22 20:40:11;;;;;;;6.25;2.83;;;;;;;16.92;100.00;100326.78;4823048;29;20034;-81
2023/05/22 20:42:38;;;;;;;5.57;3.88;;;;;;;16.96;100.00;100332.88;4822194;29;20313;-81
2023/05/22 20:45:04;;;;;;;5.82;3.53;;;;;;;17.05;100.00;100349.38;4824466;29;20026;-82
2023/05/22 20:47:30;;;;;;;6.25;4.22;;;;;;;16.86;100.00;100330.47;4799757;29;20038;-82
2023/05/22 20:49:56;;;;;;;5.15;2.53;;;;;;;16.95;100.00;100342.63;4800400;29;20686;-87
2023/05/22 20:52:21;;;;;;;6.00;4.15;;;;;;;17.06;100.00;100361.72;4834283;29;20042;-85
2023/05/22 20:54:46;;;;;;;8.82;3.50;;;;;;;17.08;100.00;100382.91;4807401;29;20039;-85
2023/05/22 20:57:12;;;;;;;5.93;3.83;;;;;;;17.13;100.00;100377.47;4803175;29;20456;-76
2023/05/22 20:59:37;;;;;;;5.65;3.60;;;;;;;16.98;100.00;100369.03;4822242;29;20030;-77
2023/05/22 21:02:03;;;;;;;6.72;3.72;;;;;;;16.98;100.00;100378.75;4805974;29;20124;-76
2023/05/22 21:04:29;;;;;;;5.68;4.10;;;;;;;16.97;100.00;100379.66;4824100;29;20509;-77
2023/05/22 21:06:54;;;;;;;6.85;3.45;;;;;;;16.81;100.00;100361.53;4800228;29;20113;-77
2023/05/22 21:09:20;;;;;;;10.02;3.42;;;;;;;16.91;100.00;100358.63;4823095;29;20157;-76
2023/05/22 21:11:46;;;;;;;5.82;4.20;;;;;;;16.95;100.00;100334.66;4822799;29;20079;-77
2023/05/22 21:14:11;;;;;;;6.28;2.92;;;;;;;17.11;100.00;100361.59;4804409;29;20156;-77
2023/05/22 21:16:37;;;;;;;10.05;6.63;;;;;;;16.37;100.00;100262.00;4820118;29;20774;-78
2023/05/22 21:19:03;;;;;;;10.05;6.18;;;;;;;17.09;100.00;100388.16;4806923;29;20061;-78
2023/05/22 21:21:28;;;;;;;16.48;12.88;;;;;;;16.87;100.00;100339.28;4817713;29;20026;-76
2023/05/22 21:23:54;;;;;;;9.35;5.43;;;;;;;16.95;100.00;100386.78;4828058;29;20022;-76
2023/05/22 21:26:21;;;;;;;15.68;6.93;;;;;;;16.10;100.00;100260.94;4804451;29;20063;-76
2023/05/22 21:28:46;;;;;;;12.75;10.20;;;;;;;16.06;100.00;100297.22;4825977;29;20034;-77
2023/05/22 21:31:14;;;;;;;6.85;5.00;;;;;;;16.52;100.00;100382.56;4829734;29;20065;-78
2023/05/22 21:33:40;;;;;;;5.63;3.70;;;;;;;16.37;100.00;100350.25;4816220;29;20094;-78
2023/05/22 21:36:06;;;;;;;5.18;2.92;;;;;;;16.36;100.00;100374.97;4823370;29;20691;-78
2023/05/22 21:38:31;;;;;;;4.72;2.97;;;;;;;16.45;100.00;100371.25;4807538;29;20026;-77
2023/05/22 21:40:57;;;;;;;5.15;3.63;;;;;;;15.82;100.00;100293.34;4826998;29;20611;-79
2023/05/22 21:43:22;;;;;;;6.18;3.10;;;;;;;16.37;100.00;100370.59;4807254;29;20038;-84
2023/05/22 21:45:48;;;;;;;12.25;3.55;;;;;;;16.25;100.00;100367.31;4826857;29;20125;-74
2023/05/22 21:48:13;;;;;;;4.95;3.28;;;;;;;16.38;100.00;100367.00;4825549;29;20039;-76
2023/05/22 21:50:38;;;;;;;6.05;2.88;;;;;;;16.53;100.00;100377.25;4806108;29;20103;-78
2023/05/22 21:53:04;;;;;;;5.03;3.25;;;;;;;16.46;100.00;100381.81;4828336;29;20030;-77
2023/05/22 21:55:29;;;;;;;4.85;2.47;;;;;;;16.37;100.00;100376.75;4824690;29;20090;-77
2023/05/22 21:57:55;;;;;;;4.53;2.75;;;;;;;16.25;100.00;100377.03;4825205;29;21263;-78
2023/05/22 22:00:21;;;;;;;10.10;4.30;;;;;;;16.08;100.00;100368.63;4809826;29;20094;-79
2023/05/22 22:02:47;;;;;;;5.85;3.20;;;;;;;15.67;100.00;100281.31;4809845;29;20045;-78
2023/05/22 22:05:12;;;;;;;4.68;2.80;;;;;;;16.38;100.00;100361.72;4805011;29;20101;-79
2023/05/22 22:07:38;;;;;;;4.57;3.10;;;;;;;16.38;100.00;100365.22;4832984;29;20041;-78
2023/05/22 22:10:03;;;;;;;5.20;3.08;;;;;;;16.38;100.00;100370.53;4820710;29;20026;-78
2023/05/22 22:12:29;;;;;;;6.68;3.60;;;;;;;15.97;100.00;100348.56;4805867;29;20062;-80
2023/05/22 22:14:55;;;;;;;5.18;3.78;;;;;;;15.94;100.00;100348.63;4833176;29;20047;-78
2023/05/22 22:17:22;;;;;;;5.75;2.75;;;;;;;15.62;100.00;100293.78;4801898;29;20043;-78
2023/05/22 22:19:48;;;;;;;4.05;2.88;;;;;;;15.95;100.00;100350.38;4825836;29;20117;-79
2023/05/22 22:22:13;;;;;;;4.72;3.35;;;;;;;15.99;100.00;100330.88;4831985;29;20577;-78
2023/05/22 22:24:39;;;;;;;5.07;2.75;;;;;;;15.93;100.00;100338.97;4825406;29;20026;-77
2023/05/22 22:27:05;;;;;;;4.28;2.92;;;;;;;16.14;100.00;100337.56;4798989;29;20039;-77
2023/05/22 22:29:30;;;;;;;5.20;3.63;;;;;;;16.20;100.00;100334.78;4821949;29;20416;-78
2023/05/22 22:31:55;;;;;;;5.57;3.47;;;;;;;16.23;100.00;100331.19;4793516;29;20432;-78
2023/05/22 22:34:21;;;;;;;4.80;3.55;;;;;;;16.29;100.00;100331.03;4798685;29;20026;-79
2023/05/22 22:36:46;;;;;;;6.38;3.30;;;;;;;16.25;100.00;100332.91;4824764;29;20549;-79
2023/05/22 22:39:12;;;;;;;5.65;3.50;;;;;;;15.86;100.00;100267.69;4823403;29;20084;-77
2023/05/22 22:41:37;;;;;;;6.28;3.30;;;;;;;16.10;100.00;100306.78;4824826;29;20101;-79
2023/05/22 22:44:03;;;;;;;7.10;3.35;;;;;;;16.04;100.00;100309.59;4801009;29;20038;-80
2023/05/22 22:46:28;;;;;;;6.22;3.47;;;;;;;16.11;100.00;100308.53;4808622;29;20123;-77
2023/05/22 22:48:54;;;;;;;5.65;3.45;;;;;;;15.98;100.00;100272.69;4808374;29;20034;-79
2023/05/22 22:51:20;;;;;;;5.97;2.65;;;;;;;16.10;100.00;100287.41;4825079;29;20037;-79
2023/05/22 22:53:46;;;;;;;6.13;3.47;;;;;;;16.03;100.00;100273.44;4824688;29;20026;-78
2023/05/22 22:56:11;;;;;;;3.78;2.72;;;;;;;16.01;100.00;100283.19;4824460;29;20030;-78
2023/05/22 22:58:37;;;;;;;6.00;3.50;;;;;;;15.65;100.00;100284.91;4824778;29;20026;-79
2023/05/22 23:01:04;;;;;;;6.97;3.78;;;;;;;15.23;100.00;100219.72;4824940;29;20474;-78
2023/05/22 23:03:29;;;;;;;6.20;3.28;;;;;;;15.27;100.00;100220.56;4824895;29;20026;-78
2023/05/22 23:05:56;;;;;;;4.70;3.60;;;;;;;15.61;100.00;100260.28;4802342;29;20543;-78
2023/05/22 23:08:22;;;;;;;5.68;3.80;;;;;;;15.56;100.00;100241.03;4824904;29;20822;-79
2023/05/22 23:10:47;;;;;;;7.28;4.38;;;;;;;15.65;100.00;100259.31;4823703;29;20026;-78
2023/05/22 23:13:12;;;;;;;8.88;3.80;;;;;;;15.75;100.00;100255.56;4823482;29;20109;-78
2023/05/22 23:15:38;;;;;;;4.50;3.33;;;;;;;15.80;100.00;100259.00;4821149;29;20490;-79
2023/05/22 23:18:03;;;;;;;6.53;4.40;;;;;;;15.75;100.00;100246.78;4807640;29;20462;-78
2023/05/22 23:20:29;;;;;;;6.78;3.65;;;;;;;15.24;100.00;100199.44;4823381;29;20482;-79
2023/05/22 23:22:55;;;;;;;6.55;3.90;;;;;;;15.50;100.00;100244.69;4824106;29;20521;-77
2023/05/22 23:25:20;;;;;;;4.97;3.33;;;;;;;15.02;100.00;100178.78;4822530;29;20090;-78
2023/05/22 23:27:46;;;;;;;6.05;4.35;;;;;;;15.09;100.00;100203.31;4824026;29;20022;-77
2023/05/22 23:30:11;;;;;;;6.22;3.97;;;;;;;15.06;100.00;100183.13;4824370;29;20102;-78
2023/05/22 23:32:37;;;;;;;6.65;4.20;;;;;;;15.26;100.00;100218.78;4824043;29;20482;-78
2023/05/22 23:35:03;;;;;;;5.75;3.83;;;;;;;15.17;100.00;100207.53;4824016;29;20460;-77
2023/05/22 23:37:29;;;;;;;8.77;3.70;;;;;;;15.07;100.00;100183.97;4807770;29;20101;-79
2023/05/22 23:39:54;;;;;;;4.90;3.45;;;;;;;15.13;100.00;100200.56;4824253;29;20071;-79
2023/05/22 23:42:20;;;;;;;8.85;3.80;;;;;;;15.12;100.00;100219.97;4807251;29;20030;-78
2023/05/22 23:44:46;;;;;;;7.20;4.45;;;;;;;14.92;100.00;100178.13;4807519;29;20099;-78
2023/05/22 23:47:11;;;;;;;7.72;3.90;;;;;;;14.88;100.00;100178.22;4824121;29;20067;-77
2023/05/22 23:49:36;;;;;;;8.07;4.07;;;;;;;14.91;100.00;100194.91;4807808;29;20030;-77
2023/05/22 23:52:02;;;;;;;7.63;4.93;;;;;;;14.80;100.00;100170.47;4820725;29;20037;-77
2023/05/22 23:54:28;;;;;;;6.82;5.55;;;;;;;14.86;100.00;100188.81;4823853;29;20109;-79
2023/05/22 23:56:53;;;;;;;11.88;7.78;;;;;;;15.22;100.00;100223.28;4824619;29;20485;-78
2023/05/22 23:59:19;;;;;;;9.40;6.32;;;;;;;15.13;100.00;100227.00;4820138;29;20030;-78
